Time;durP1;ratioP1;P1;durP2;ratioP2;P2;SDS_P1;SDS_P2;PMS_P1;PMS_P2;Temp;Humidity;BMP_temperature;BMP_pressure;BME280_temperature;BME280_humidity;BME280_pressure;Samples;Min_cycle;Max_cycle;Signal;HPM_P1;HPM_P2
2024/02/27 00:00:29;;;;;;;32.20;24.80;;;;;;;6.40;100.00;98862.68;451412;1253;139911;-70
2024/02/27 00:10:35;;;;;;;32.20;24.00;;;;;;;6.21;100.00;98874.73;451544;1253;140413;-70
2024/02/27 00:20:42;;;;;;;36.60;24.10;;;;;;;6.05;100.00;98878.04;451743;1253;140058;-71
2024/02/27 00:30:49;;;;;;;38.70;28.10;;;;;;;5.86;100.00;98887.23;451916;1252;139410;-60
2024/02/27 00:40:55;;;;;;;35.70;27.40;;;;;;;5.81;100.00;98901.92;451792;1253;139784;-61
2024/02/27 00:51:02;;;;;;;38.20;29.80;;;;;;;5.75;100.00;98903.80;451806;1253;139766;-57
2024/02/27 01:01:08;;;;;;;32.50;25.50;;;;;;;5.73;100.00;98902.73;451772;1252;140507;-60
2024/02/27 01:11:14;;;;;;;43.00;26.50;;;;;;;5.68;100.00;98907.66;451916;1254;139931;-60
2024/02/27 01:21:22;;;;;;;29.00;22.40;;;;;;;5.61;100.00;98911.02;451783;1253;139242;-60
2024/02/27 01:31:29;;;;;;;28.80;21.90;;;;;;;5.42;100.00;98922.58;451802;1253;139658;-61
2024/02/27 01:41:37;;;;;;;30.90;22.20;;;;;;;5.31;100.00;98924.38;451831;1252;139399;-59
2024/02/27 01:51:43;;;;;;;30.00;22.20;;;;;;;5.30;100.00;98928.08;451797;1252;139705;-59
2024/02/27 02:01:51;;;;;;;33.70;25.80;;;;;;;5.37;100.00;98932.40;451869;1253;139844;-60
2024/02/27 02:12:00;;;;;;;35.00;24.80;;;;;;;5.40;100.00;98936.08;451925;1253;139359;-67
2024/02/27 02:22:09;;;;;;;31.60;21.90;;;;;;;5.41;100.00;98936.19;451731;1253;139863;-72
2024/02/27 02:32:15;;;;;;;34.20;24.10;;;;;;;5.43;100.00;98938.52;451822;1256;139887;-70
2024/02/27 02:42:21;;;;;;;31.40;24.20;;;;;;;5.42;100.00;98938.06;451903;1254;139885;-58
2024/02/27 02:52:27;;;;;;;29.30;22.00;;;;;;;5.41;100.00;98938.26;451797;1253;139526;-59
2024/02/27 03:02:33;;;;;;;31.50;23.60;;;;;;;5.39;100.00;98944.46;451595;1252;140456;-60
2024/02/27 03:12:39;;;;;;;31.10;22.80;;;;;;;5.32;100.00;98955.89;451993;1254;139894;-60
2024/02/27 03:22:45;;;;;;;26.60;22.20;;;;;;;5.26;100.00;98967.67;451761;1253;139991;-61
2024/02/27 03:32:52;;;;;;;33.80;26.10;;;;;;;5.32;100.00;98966.34;451787;1253;139410;-60
2024/02/27 03:43:00;;;;;;;30.90;25.40;;;;;;;5.41;100.00;98978.19;451886;1253;139194;-60
2024/02/27 03:53:06;;;;;;;37.70;26.10;;;;;;;5.53;100.00;98986.40;451831;1253;139596;-60
2024/02/27 04:03:12;;;;;;;34.20;25.00;;;;;;;5.65;100.00;98978.35;451839;1253;140221;-58
2024/02/27 04:13:18;;;;;;;37.60;24.80;;;;;;;5.74;100.00;98980.82;451840;1253;141179;-59
2024/02/27 04:23:24;;;;;;;39.40;30.10;;;;;;;5.78;100.00;98983.73;451918;1255;139202;-68
2024/02/27 04:33:30;;;;;;;27.80;23.40;;;;;;;5.77;100.00;98993.67;451813;1253;140113;-68
2024/02/27 04:43:36;;;;;;;36.80;26.70;;;;;;;5.85;100.00;98996.40;451736;1255;139540;-71
2024/02/27 04:53:44;;;;;;;36.20;26.00;;;;;;;5.96;100.00;98993.02;451929;1254;139466;-69
2024/02/27 05:03:50;;;;;;;31.70;26.00;;;;;;;6.06;100.00;98999.79;451817;1256;139408;-58
2024/02/27 05:14:00;;;;;;;27.90;22.80;;;;;;;6.15;100.00;99010.61;451757;1256;141267;-60
2024/02/27 05:24:07;;;;;;;33.90;26.20;;;;;;;6.21;100.00;99025.55;451876;1256;140362;-60
2024/02/27 05:34:13;;;;;;;29.50;23.90;;;;;;;6.27;100.00;99036.71;451739;1253;139825;-58
2024/02/27 05:44:19;;;;;;;31.90;25.50;;;;;;;6.31;100.00;99035.83;451768;1254;139657;-59
2024/02/27 05:54:25;;;;;;;35.90;26.10;;;;;;;6.35;100.00;99040.62;451894;1253;139180;-71
2024/02/27 06:04:34;;;;;;;37.60;27.70;;;;;;;6.43;100.00;99044.72;451824;1254;139442;-71
2024/02/27 06:14:40;;;;;;;34.00;27.80;;;;;;;6.55;100.00;99050.33;451709;1254;139498;-59
2024/02/27 06:24:48;;;;;;;30.20;24.70;;;;;;;6.73;100.00;99059.91;451786;1253;139177;-58
2024/02/27 06:34:54;;;;;;;29.40;24.80;;;;;;;7.21;100.00;99059.13;451538;1256;139857;-61
2024/02/27 06:45:01;;;;;;;32.20;25.40;;;;;;;7.68;100.00;99057.89;447692;1256;5073923;-62
2024/02/27 06:55:08;;;;;;;26.00;21.20;;;;;;;7.96;100.00;99057.59;451592;1254;139738;-62
2024/02/27 07:05:16;;;;;;;26.50;21.40;;;;;;;8.50;100.00;99065.97;451801;1253;139498;-61
2024/02/27 07:15:22;;;;;;;24.30;21.10;;;;;;;10.29;100.00;99071.84;451759;1254;139812;-66
2024/02/27 07:25:28;;;;;;;20.90;18.40;;;;;;;11.60;100.00;99085.11;451664;1254;139865;-66
2024/02/27 07:35:34;;;;;;;19.80;17.70;;;;;;;13.89;100.00;99085.86;451736;1254;140151;-71
2024/02/27 07:45:40;;;;;;;17.40;15.70;;;;;;;17.23;100.00;99103.17;451644;1252;141536;-61
2024/02/27 07:55:46;;;;;;;17.60;15.90;;;;;;;20.41;99.78;99099.45;451725;1254;140867;-61
2024/02/27 08:05:52;;;;;;;15.10;13.70;;;;;;;22.88;94.80;99094.55;451844;1254;138840;-67
2024/02/27 08:15:58;;;;;;;15.60;14.10;;;;;;;25.38;88.23;99086.04;451625;1254;139369;-60
2024/02/27 08:26:07;;;;;;;15.10;13.70;;;;;;;26.98;80.06;99093.25;451615;1253;139108;-63
2024/02/27 08:36:13;;;;;;;17.10;15.60;;;;;;;28.61;75.27;99097.83;451856;1253;139536;-62
2024/02/27 08:46:19;;;;;;;18.00;14.20;;;;;;;30.11;69.86;99089.98;451714;1253;139143;-62
2024/02/27 08:56:26;;;;;;;16.30;14.60;;;;;;;31.36;63.98;99087.91;451673;1254;139574;-61
2024/02/27 09:06:32;;;;;;;15.30;13.80;;;;;;;33.25;54.96;99093.52;451679;1253;138738;-71
2024/02/27 09:16:38;;;;;;;15.40;13.70;;;;;;;33.44;49.23;99097.48;451492;1253;138709;-70
2024/02/27 09:26:44;;;;;;;15.50;13.90;;;;;;;31.04;47.08;99113.06;451473;1254;139760;-70
2024/02/27 09:36:50;;;;;;;18.00;15.10;;;;;;;28.56;47.54;99116.81;451802;1253;138658;-70
2024/02/27 09:47:00;;;;;;;17.10;13.50;;;;;;;25.58;47.72;99122.55;451672;1253;138409;-72
2024/02/27 09:57:06;;;;;;;14.40;11.30;;;;;;;22.66;49.11;99133.94;451678;1253;139234;-72
2024/02/27 10:07:13;;;;;;;10.10;9.10;;;;;;;21.21;50.96;99132.98;451776;1252;139308;-70
2024/02/27 10:17:19;;;;;;;;;;;;;;;20.49;51.69;99133.73;451912;1252;137999;-70
2024/02/27 10:27:32;;;;;;;8.50;7.50;;;;;;;19.85;52.43;99132.41;451792;1252;125073;-58
2024/02/27 10:37:38;;;;;;;10.20;7.90;;;;;;;18.96;52.85;99137.66;451745;1252;139387;-57
2024/02/27 10:47:45;;;;;;;10.30;7.90;;;;;;;18.60;54.14;99139.27;451798;1252;139132;-58
2024/02/27 10:57:59;;;;;;;8.40;7.50;;;;;;;18.32;54.76;99129.90;451668;1252;139495;-71
2024/02/27 11:08:06;;;;;;;9.10;7.90;;;;;;;17.98;55.08;99132.66;451694;1252;138742;-70
2024/02/27 11:18:15;;;;;;;12.40;7.50;;;;;;;17.48;55.45;99137.73;451739;1252;138428;-61
2024/02/27 11:28:23;;;;;;;11.50;7.20;;;;;;;17.34;56.23;99137.66;451600;1252;139526;-62
2024/02/27 11:38:36;;;;;;;7.70;6.90;;;;;;;17.59;56.62;99129.02;451522;1252;139217;-74
2024/02/27 11:48:49;;;;;;;11.00;7.50;;;;;;;17.83;56.29;99132.46;451658;1252;138960;-69
2024/02/27 11:58:56;;;;;;;10.00;8.10;;;;;;;17.93;55.98;99131.45;451520;1252;139230;-67
2024/02/27 12:09:02;;;;;;;10.20;8.80;;;;;;;17.86;56.30;99130.87;451511;1252;139181;-68
2024/02/27 12:19:08;;;;;;;9.80;8.60;;;;;;;18.03;56.29;99127.23;451471;1252;138989;-64
2024/02/27 12:29:17;;;;;;;8.70;7.80;;;;;;;18.15;56.26;99130.14;451722;1252;138879;-66
2024/02/27 12:39:24;;;;;;;29.10;10.10;;;;;;;18.08;56.12;99129.77;451579;1252;139094;-68
2024/02/27 12:49:30;;;;;;;9.00;6.90;;;;;;;18.12;56.35;99124.90;451721;1252;139253;-63
2024/02/27 12:59:37;;;;;;;9.20;7.70;;;;;;;18.14;56.03;99120.60;451851;1252;138538;-67
2024/02/27 13:09:45;;;;;;;8.40;7.50;;;;;;;18.09;56.07;99114.98;451747;1252;139284;-63
2024/02/27 13:19:52;;;;;;;8.10;7.20;;;;;;;17.81;55.83;99120.46;451610;1252;139454;-62
2024/02/27 13:29:58;;;;;;;9.60;8.20;;;;;;;17.51;56.26;99119.04;451697;1252;138441;-60
2024/02/27 13:40:04;;;;;;;9.50;7.90;;;;;;;17.38;56.82;99114.10;451691;1252;139210;-64
2024/02/27 13:50:11;;;;;;;10.50;8.40;;;;;;;17.32;57.29;99113.80;451694;1253;138663;-69
2024/02/27 14:00:21;;;;;;;8.60;7.70;;;;;;;17.29;57.44;99112.14;451687;1252;139423;-61
2024/02/27 14:10:27;;;;;;;12.00;8.40;;;;;;;17.29;57.35;99114.27;451654;1252;138945;-63
2024/02/27 14:20:35;;;;;;;12.20;8.10;;;;;;;17.15;57.75;99119.89;451673;1252;139258;-61
2024/02/27 14:30:41;;;;;;;9.60;7.60;;;;;;;16.96;57.79;99128.45;451832;1252;139241;-66
2024/02/27 14:40:49;;;;;;;9.70;7.60;;;;;;;16.65;58.15;99135.81;451646;1252;138613;-73
2024/02/27 14:50:55;;;;;;;8.60;6.80;;;;;;;16.25;58.82;99139.48;451782;1252;140413;-57
2024/02/27 15:01:03;;;;;;;11.50;7.50;;;;;;;15.87;59.46;99151.09;451877;1252;138919;-58
2024/02/27 15:11:15;;;;;;;21.80;9.50;;;;;;;15.61;60.22;99156.80;451821;1252;139234;-65
2024/02/27 15:21:22;;;;;;;23.50;8.30;;;;;;;15.49;61.01;99161.95;451685;1253;139491;-64
2024/02/27 15:31:28;;;;;;;16.20;9.30;;;;;;;15.41;61.56;99161.61;451736;1252;138899;-65
2024/02/27 15:41:34;;;;;;;10.50;8.50;;;;;;;15.29;61.79;99162.04;451709;1252;138533;-61
2024/02/27 15:51:46;;;;;;;23.00;9.30;;;;;;;15.07;62.67;99177.23;451669;1252;139165;-63
2024/02/27 16:01:54;;;;;;;20.40;9.00;;;;;;;14.74;63.22;99187.88;451720;1252;139051;-64
2024/02/27 16:12:01;;;;;;;10.20;7.60;;;;;;;14.42;63.94;99191.94;451811;1252;139074;-60
2024/02/27 16:22:23;;;;;;;21.40;9.20;;;;;;;14.17;64.60;99203.23;451740;1252;138917;-62
2024/02/27 16:32:29;;;;;;;28.10;12.50;;;;;;;13.92;65.55;99207.80;451800;1252;139003;-61
2024/02/27 16:42:35;;;;;;;31.80;16.00;;;;;;;13.71;66.49;99210.07;451811;1253;138890;-61
2024/02/27 16:52:41;;;;;;;17.80;15.00;;;;;;;13.50;67.28;99226.59;451704;1253;138786;-58
2024/02/27 17:02:49;;;;;;;20.60;13.90;;;;;;;13.25;68.21;99232.59;451688;1252;139449;-62
2024/02/27 17:12:58;;;;;;;20.70;15.40;;;;;;;12.99;68.81;99239.25;451854;1252;138621;-63
2024/02/27 17:23:10;;;;;;;16.80;13.50;;;;;;;12.69;69.27;99243.67;451851;1252;139635;-63
2024/02/27 17:33:15;;;;;;;19.00;16.30;;;;;;;12.35;69.63;99252.25;451926;1252;139889;-64
2024/02/27 17:43:24;;;;;;;34.80;25.20;;;;;;;11.96;70.29;99258.11;451922;1252;139359;-63
2024/02/27 17:53:30;;;;;;;22.20;16.60;;;;;;;11.65;71.04;99256.05;452072;1253;139601;-63
2024/02/27 18:03:38;;;;;;;19.00;16.00;;;;;;;11.46;71.85;99263.52;452042;1252;141463;-58
2024/02/27 18:13:44;;;;;;;23.90;16.10;;;;;;;11.46;72.44;99260.73;452002;1252;139537;-59
2024/02/27 18:23:51;;;;;;;28.90;19.50;;;;;;;11.49;72.99;99269.25;452020;1252;139425;-58
2024/02/27 18:33:57;;;;;;;22.60;17.20;;;;;;;11.49;73.21;99273.10;451962;1253;140370;-58
2024/02/27 18:44:03;;;;;;;21.30;16.80;;;;;;;11.47;73.66;99263.63;448026;1253;5106697;-59
2024/02/27 18:54:09;;;;;;;21.80;16.90;;;;;;;11.27;74.18;99272.45;452109;1253;140296;-59
2024/02/27 19:04:16;;;;;;;20.80;16.20;;;;;;;11.03;74.97;99272.20;452032;1254;139789;-59
2024/02/27 19:14:22;;;;;;;27.00;20.00;;;;;;;10.99;75.89;99271.80;452062;1253;139838;-59
2024/02/27 19:24:28;;;;;;;23.70;17.80;;;;;;;10.99;76.27;99267.21;452123;1253;140134;-58
2024/02/27 19:34:35;;;;;;;26.80;20.70;;;;;;;10.97;76.54;99269.98;451955;1254;140041;-58
2024/02/27 19:44:41;;;;;;;25.70;18.60;;;;;;;10.90;77.14;99277.99;451890;1253;140068;-58
2024/02/27 19:54:47;;;;;;;30.90;20.60;;;;;;;10.79;77.66;99277.02;451996;1253;140693;-64
2024/02/27 20:04:53;;;;;;;24.20;18.40;;;;;;;10.50;77.81;99279.69;451831;1252;139589;-63
2024/02/27 20:14:59;;;;;;;25.20;16.50;;;;;;;10.26;78.79;99282.02;451846;1253;139835;-59
2024/02/27 20:25:08;;;;;;;34.10;20.00;;;;;;;10.13;79.51;99289.30;452021;1253;139462;-59
2024/02/27 20:35:14;;;;;;;28.50;20.20;;;;;;;10.04;80.39;99287.27;451835;1253;139435;-64
2024/02/27 20:45:20;;;;;;;28.10;19.90;;;;;;;9.98;80.90;99289.48;451778;1253;139737;-64
2024/02/27 20:55:27;;;;;;;25.00;18.90;;;;;;;9.89;81.46;99330.42;451932;1256;139590;-64
2024/02/27 21:05:36;;;;;;;30.20;20.80;;;;;;;9.84;82.59;99331.48;452043;1256;139323;-63
2024/02/27 21:15:42;;;;;;;33.10;23.70;;;;;;;9.80;84.03;99311.73;451899;1256;139267;-60
2024/02/27 21:25:50;;;;;;;28.80;21.40;;;;;;;9.81;85.04;99299.48;451957;1252;140004;-59
2024/02/27 21:35:56;;;;;;;32.20;23.00;;;;;;;9.83;85.79;99304.23;451984;1253;139219;-63
2024/02/27 21:46:05;;;;;;;26.70;21.10;;;;;;;9.84;86.54;99305.56;451930;1253;139118;-63
2024/02/27 21:56:11;;;;;;;26.70;20.70;;;;;;;9.89;87.13;99309.82;451940;1253;139888;-64
2024/02/27 22:06:17;;;;;;;27.70;21.10;;;;;;;9.93;87.58;99315.09;451998;1253;139819;-59
2024/02/27 22:16:23;;;;;;;28.40;21.80;;;;;;;9.91;88.63;99320.11;451928;1255;140485;-57
2024/02/27 22:26:29;;;;;;;38.40;28.50;;;;;;;9.81;89.63;99343.17;451873;1254;140445;-57
2024/02/27 22:36:35;;;;;;;44.90;31.30;;;;;;;9.64;90.52;99370.61;451991;1254;140356;-58
2024/02/27 22:46:41;;;;;;;45.30;35.00;;;;;;;9.37;91.30;99378.59;451778;1252;139769;-64
2024/02/27 22:56:48;;;;;;;42.00;32.70;;;;;;;9.25;92.90;99359.95;451728;1254;139989;-65
2024/02/27 23:06:55;;;;;;;42.30;30.80;;;;;;;9.11;93.90;99344.39;451911;1254;139398;-58
2024/02/27 23:17:00;;;;;;;;;;;;;;;9.06;95.99;99349.79;451774;1256;139917;-58
2024/02/27 23:27:06;;;;;;;41.20;28.90;;;;;;;9.03;97.72;99342.82;451827;1254;126218;-57
2024/02/27 23:37:12;;;;;;;47.50;31.90;;;;;;;9.03;99.16;99349.09;451916;1255;141182;-58
2024/02/27 23:47:18;;;;;;;43.80;32.30;;;;;;;9.04;99.90;99350.45;452003;1254;139768;-62
2024/02/27 23:57:24;;;;;;;46.70;34.50;;;;;;;9.07;100.00;99360.89;451732;1253;139780;-61
